DLH4MK EDDL-EDDF
Flight info
| Callsign | DLH4MK |
|---|---|
| Flight time | N/A |
| Altitude | 23000 |
| Route | COL5Z COL T911 ROLIS ROLIS5A |
| Aircraft | A320/M-SDE2E3FGIJ1LORWXYZ/HB1 |
Departure
| Time | 2026-05-06 01:39 |
|---|---|
| Airport | Düsseldorf Airport (EDDL) |
Arrival
| Time | N/A |
|---|---|
| Airport | Frankfurt Main Airport (EDDF) |
| Time | Latitude | Longitude | Altitude | Speed | Heading |
|---|---|---|---|---|---|
| 2026-05-06 01:29 | 51.28109 | 6.76538 | 128 ft | 0 kts | 96° |
| 2026-05-06 01:29 | 51.28110 | 6.76517 | 124 ft | 4 kts | 97° |
| 2026-05-06 01:29 | 51.28114 | 6.76475 | 125 ft | 4 kts | 102° |
| 2026-05-06 01:30 | 51.28122 | 6.76435 | 125 ft | 4 kts | 129° |
| 2026-05-06 01:30 | 51.28139 | 6.76421 | 124 ft | 4 kts | 186° |
| 2026-05-06 01:30 | 51.28165 | 6.76426 | 124 ft | 4 kts | 187° |
| 2026-05-06 01:30 | 51.28192 | 6.76433 | 122 ft | 4 kts | 189° |
| 2026-05-06 01:31 | 51.28219 | 6.76441 | 123 ft | 4 kts | 196° |
| 2026-05-06 01:31 | 51.28243 | 6.76456 | 125 ft | 4 kts | 218° |
| 2026-05-06 01:31 | 51.28258 | 6.76482 | 123 ft | 4 kts | 233° |
| 2026-05-06 01:31 | 51.28274 | 6.76516 | 125 ft | 4 kts | 233° |
| 2026-05-06 01:32 | 51.28290 | 6.76550 | 124 ft | 4 kts | 232° |
| 2026-05-06 01:32 | 51.28307 | 6.76584 | 120 ft | 4 kts | 232° |
| 2026-05-06 01:32 | 51.28320 | 6.76611 | 123 ft | 0 kts | 232° |
| 2026-05-06 01:34 | 51.28315 | 6.76601 | 121 ft | 4 kts | 232° |
| 2026-05-06 01:34 | 51.28291 | 6.76550 | 124 ft | 9 kts | 233° |
| 2026-05-06 01:35 | 51.28236 | 6.76433 | 123 ft | 16 kts | 233° |
| 2026-05-06 01:35 | 51.28184 | 6.76282 | 125 ft | 14 kts | 268° |
| 2026-05-06 01:35 | 51.28192 | 6.76151 | 129 ft | 11 kts | 250° |
| 2026-05-06 01:35 | 51.28157 | 6.76079 | 125 ft | 6 kts | 231° |
| 2026-05-06 01:36 | 51.28139 | 6.76043 | 127 ft | 2 kts | 231° |
| 2026-05-06 01:36 | 51.28120 | 6.76005 | 128 ft | 14 kts | 232° |
| 2026-05-06 01:36 | 51.28028 | 6.75807 | 127 ft | 22 kts | 234° |
| 2026-05-06 01:36 | 51.27951 | 6.75629 | 129 ft | 14 kts | 245° |
| 2026-05-06 01:37 | 51.27989 | 6.75528 | 126 ft | 10 kts | 334° |
| 2026-05-06 01:37 | 51.27997 | 6.75521 | 128 ft | 0 kts | 334° |
| 2026-05-06 01:37 | 51.28048 | 6.75488 | 125 ft | 17 kts | 347° |
| 2026-05-06 01:37 | 51.28137 | 6.75569 | 128 ft | 8 kts | 53° |
| 2026-05-06 01:38 | 51.28148 | 6.75593 | 126 ft | 15 kts | 52° |
| 2026-05-06 01:38 | 51.28391 | 6.76091 | 127 ft | 93 kts | 52° |
| 2026-05-06 01:38 | 51.28904 | 6.77172 | 127 ft | 149 kts | 52° |
| 2026-05-06 01:38 | 51.29565 | 6.78584 | 607 ft | 163 kts | 50° |
| 2026-05-06 01:39 | 51.30245 | 6.80062 | 1423 ft | 165 kts | 51° |
| 2026-05-06 01:39 | 51.30970 | 6.81591 | 1962 ft | 183 kts | 53° |
| 2026-05-06 01:39 | 51.31786 | 6.83308 | 2375 ft | 204 kts | 53° |
| 2026-05-06 01:39 | 51.32682 | 6.85195 | 2843 ft | 224 kts | 53° |
| 2026-05-06 01:40 | 51.33671 | 6.87296 | 3327 ft | 249 kts | 54° |
| 2026-05-06 01:40 | 51.34690 | 6.89594 | 4077 ft | 262 kts | 59° |
| 2026-05-06 01:40 | 51.34973 | 6.90471 | 4391 ft | 264 kts | 68° |